»·PEaware :: N516DM KMFR-KONP

N516DM :: KMFR-KONP

FLIGHT INFORMATION

Flight Status: Arrived
Operator: Privately registered:
United States
More flights under this callsign
Pilot: Thomas H. (5912)
Aircraft: BEECH AIRCRAFT DEBONAIR BONANZA
(BE33)
More flights by this aircraft type
Origin: KMFR Rogue Valley Intl-Medford
United States
Destination: KONP Newport Mun
United States
More flights between these airports :: More routes between these airports
Route: JKSN1 OED V287 OTH V182 ONP
File this flight plan on PilotEdge
Remarks:
Altitude:
(Current/Filed)
10,000ft
Speed:
(Current/Filed)
160kts
Departed: 05-Jan-19 09:09 AM
Arrived: 05-Jan-19 10:24 AM
Distance/Time
Traveled:
142nm/1:15
Distance/Time
To Go:
Arrived

Flight Plot

Page will automatically refresh every two minutes.

Flight plan parsing failed; only flown route is shown


Map Options




Map Legend


Flown Route
Filed Route
Departure Airport
Arrival Airport
Navaid (VOR, NDB)
Fix

Horizontal Profiles

Position Reports

Time Latitude Longitude Heading Altitude Ground
Speed
05-Jan-19 08:53 42.375489 -122.877981 114 1306ft 0kts
05-Jan-19 08:54 42.375489 -122.877981 114 1306ft 0kts
05-Jan-19 08:55 42.375489 -122.877981 114 1306ft 0kts
05-Jan-19 08:56 42.375489 -122.877981 114 1306ft 0kts
05-Jan-19 08:57 42.375489 -122.877981 114 1306ft 0kts
05-Jan-19 08:58 42.375489 -122.877981 114 1306ft 0kts
05-Jan-19 08:59 42.375489 -122.877981 114 1306ft 0kts
05-Jan-19 09:00 42.375489 -122.877981 114 1306ft 0kts
05-Jan-19 09:01 42.375489 -122.877981 114 1306ft 0kts
05-Jan-19 09:02 42.375489 -122.877981 114 1306ft 0kts
05-Jan-19 09:03 42.375489 -122.877981 114 1306ft 0kts
05-Jan-19 09:04 42.376108 -122.877890 77 1306ft 12kts
05-Jan-19 09:05 42.380207 -122.877641 339 1303ft 24kts
05-Jan-19 09:06 42.385794 -122.880190 58 1297ft 0kts
05-Jan-19 09:07 42.385794 -122.880190 58 1297ft 0kts
05-Jan-19 09:08 42.381783 -122.876777 158 1303ft 90kts
05-Jan-19 09:09 42.358154 -122.880449 264 2394ft 108kts
05-Jan-19 09:10 42.382087 -122.903378 333 3272ft 117kts
05-Jan-19 09:11 42.409933 -122.927835 329 4183ft 119kts
05-Jan-19 09:12 42.441544 -122.926019 12 5074ft 116kts
05-Jan-19 09:13 42.472758 -122.915661 11 5919ft 117kts
05-Jan-19 09:14 42.500243 -122.940822 315 6746ft 126kts
05-Jan-19 09:15 42.526166 -122.974171 312 7602ft 131kts
05-Jan-19 09:16 42.552726 -123.008981 309 8496ft 133kts
05-Jan-19 09:17 42.580127 -123.045062 308 9279ft 140kts
05-Jan-19 09:18 42.608231 -123.082005 305 9995ft 149kts
05-Jan-19 09:19 42.641632 -123.126781 308 10002ft 181kts
05-Jan-19 09:20 42.678746 -123.175660 308 10011ft 189kts
05-Jan-19 09:21 42.716888 -123.226105 308 10007ft 192kts
05-Jan-19 09:22 42.755107 -123.276818 308 10000ft 191kts
05-Jan-19 09:23 42.793041 -123.327280 308 10006ft 192kts
05-Jan-19 09:25 42.831348 -123.378336 308 10016ft 192kts
05-Jan-19 09:26 42.869986 -123.429922 308 9993ft 196kts
05-Jan-19 09:27 42.908637 -123.481624 308 9994ft 194kts
05-Jan-19 09:28 42.947086 -123.533145 309 10002ft 193kts
05-Jan-19 09:29 42.985111 -123.584147 308 10048ft 190kts
05-Jan-19 09:30 43.023356 -123.635641 309 10047ft 194kts
05-Jan-19 09:31 43.061428 -123.686901 308 10050ft 191kts
05-Jan-19 09:32 43.099350 -123.738135 308 10052ft 191kts
05-Jan-19 09:33 43.136976 -123.789026 308 10044ft 191kts
05-Jan-19 09:34 43.174581 -123.840171 308 10063ft 190kts
05-Jan-19 09:35 43.212173 -123.891402 308 10045ft 192kts
05-Jan-19 09:36 43.249859 -123.942665 308 10028ft 191kts
05-Jan-19 09:37 43.287416 -123.993848 308 10015ft 190kts
05-Jan-19 09:38 43.325220 -124.045157 307 10006ft 191kts
05-Jan-19 09:39 43.362997 -124.096823 307 9998ft 191kts
05-Jan-19 09:40 43.400552 -124.148277 307 10009ft 189kts
05-Jan-19 09:41 43.451423 -124.165453 4 9999ft 198kts
05-Jan-19 09:42 43.506305 -124.160299 4 9999ft 198kts
05-Jan-19 09:43 43.561061 -124.155273 4 10000ft 197kts
05-Jan-19 09:43 43.606639 -124.151091 4 10000ft 197kts
05-Jan-19 09:45 43.670228 -124.145245 4 10001ft 196kts
05-Jan-19 09:46 43.724489 -124.140220 4 10007ft 196kts
05-Jan-19 09:46 43.769746 -124.136071 4 10016ft 195kts
05-Jan-19 09:47 43.824032 -124.131047 4 10025ft 196kts
05-Jan-19 09:49 43.883930 -124.133698 3 9281ft 208kts
05-Jan-19 09:50 43.935793 -124.131146 3 8519ft 190kts
05-Jan-19 09:50 43.968244 -124.129847 3 7968ft 183kts
05-Jan-19 09:51 44.011359 -124.128288 3 7229ft 182kts
05-Jan-19 09:52 44.056706 -124.126441 4 6524ft 200kts
05-Jan-19 09:53 44.110915 -124.124617 3 6015ft 190kts
05-Jan-19 09:54 44.161389 -124.123279 3 6015ft 184kts
05-Jan-19 09:55 44.212103 -124.121832 3 6016ft 182kts
05-Jan-19 09:56 44.262783 -124.120397 3 6012ft 183kts
05-Jan-19 09:57 44.313685 -124.119003 3 5999ft 183kts
05-Jan-19 09:58 44.364599 -124.117885 357 5995ft 184kts
05-Jan-19 09:59 44.413795 -124.137554 343 5999ft 184kts
05-Jan-19 10:00 44.462912 -124.158114 343 6000ft 185kts
05-Jan-19 10:01 44.511976 -124.178536 344 6000ft 185kts
05-Jan-19 10:02 44.561494 -124.199123 344 6000ft 185kts
05-Jan-19 10:03 44.611048 -124.219676 344 6001ft 186kts
05-Jan-19 10:04 44.660819 -124.240140 346 6000ft 187kts
05-Jan-19 10:05 44.712337 -124.250079 354 6001ft 186kts
05-Jan-19 10:06 44.763234 -124.259486 353 6001ft 187kts
05-Jan-19 10:07 44.814967 -124.268985 354 6002ft 187kts
05-Jan-19 10:08 44.869063 -124.279051 353 5602ft 198kts
05-Jan-19 10:09 44.921347 -124.285565 19 5596ft 184kts
05-Jan-19 10:10 44.943317 -124.231366 104 4934ft 168kts
05-Jan-19 10:11 44.936872 -124.168636 103 4598ft 149kts
05-Jan-19 10:12 44.911816 -124.130729 144 4601ft 132kts
05-Jan-19 10:13 44.881534 -124.100110 144 4602ft 135kts
05-Jan-19 10:14 44.852992 -124.076926 169 4597ft 138kts
05-Jan-19 10:15 44.817225 -124.073992 173 4601ft 138kts
05-Jan-19 10:16 44.785579 -124.072441 173 4081ft 152kts
05-Jan-19 10:17 44.752377 -124.070116 172 3419ft 151kts
05-Jan-19 10:18 44.713657 -124.067389 173 2653ft 152kts
05-Jan-19 10:19 44.674612 -124.064963 172 2063ft 119kts
05-Jan-19 10:20 44.642454 -124.062895 172 1276ft 112kts
05-Jan-19 10:21 44.614152 -124.061092 170 720ft 85kts
05-Jan-19 10:22 44.591430 -124.059735 172 310ft 82kts
05-Jan-19 10:23 44.574051 -124.058507 181 134ft 17kts
05-Jan-19 10:24 44.572470 -124.059507 307 126ft 0kts
05-Jan-19 10:25 44.575345 -124.063279 31 115ft 15kts

Navigation Log

Ident Type
Flight plan parsing failed, navigation log unavailable